createdAt,value
2018-11-05T00:02:03.348Z,20.80
2018-11-05T00:04:32.266Z,23.87
2018-11-05T00:07:01.177Z,25.33
2018-11-05T00:09:30.125Z,34.43
2018-11-05T00:11:59.116Z,32.00
2018-11-05T00:14:28.045Z,31.07
2018-11-05T00:16:56.899Z,34.57
2018-11-05T00:19:25.830Z,38.60
2018-11-05T00:21:54.770Z,34.63
2018-11-05T00:24:23.669Z,33.50
2018-11-05T00:26:52.749Z,33.33
2018-11-05T00:29:21.707Z,35.03
2018-11-05T00:31:50.624Z,35.73
2018-11-05T00:34:19.668Z,35.00
2018-11-05T00:36:48.653Z,32.13
2018-11-05T00:39:17.641Z,32.57
2018-11-05T00:41:46.765Z,34.33
2018-11-05T00:44:16.714Z,35.87
2018-11-05T00:46:45.603Z,30.57
2018-11-05T00:49:14.519Z,33.20
2018-11-05T00:51:43.420Z,34.60
2018-11-05T00:54:12.417Z,32.07
2018-11-05T00:56:41.371Z,33.83
2018-11-05T00:59:10.263Z,32.40
2018-11-05T01:01:39.158Z,26.83
2018-11-05T01:04:08.059Z,28.67
2018-11-05T01:06:37.002Z,33.50
2018-11-05T01:09:07.316Z,25.75
2018-11-05T01:11:36.180Z,30.72
2018-11-05T01:14:05.093Z,30.55
2018-11-05T01:16:34.075Z,27.60
2018-11-05T01:19:02.996Z,30.50
2018-11-05T01:21:32.000Z,28.83
2018-11-05T01:24:00.905Z,31.17
2018-11-05T01:26:29.734Z,29.17
2018-11-05T01:28:58.632Z,30.27
2018-11-05T01:31:27.684Z,30.08
2018-11-05T01:33:56.768Z,28.95
2018-11-05T01:36:25.684Z,29.10
2018-11-05T01:38:54.680Z,26.82
2018-11-05T01:41:23.561Z,28.42
2018-11-05T01:43:52.568Z,27.93
2018-11-05T01:46:21.440Z,26.93
2018-11-05T01:48:50.433Z,28.05
2018-11-05T01:51:19.340Z,28.77
2018-11-05T01:53:48.270Z,31.37
2018-11-05T01:56:17.171Z,29.65
2018-11-05T01:58:46.025Z,32.08
2018-11-05T02:01:15.071Z,34.00
2018-11-05T02:03:43.945Z,25.50
2018-11-05T02:06:12.801Z,30.30
2018-11-05T02:08:41.732Z,26.60
2018-11-05T02:11:10.657Z,33.25
2018-11-05T02:13:39.548Z,29.57
2018-11-05T02:16:08.554Z,25.88
2018-11-05T02:18:37.559Z,23.85
2018-11-05T02:21:06.708Z,26.62
2018-11-05T02:23:35.670Z,27.45
2018-11-05T02:26:04.570Z,28.67
2018-11-05T02:28:33.502Z,25.88
2018-11-05T02:31:02.469Z,23.77
2018-11-05T02:33:31.359Z,24.60
2018-11-05T02:36:00.293Z,28.57
2018-11-05T02:38:29.176Z,29.02
2018-11-05T02:40:58.050Z,26.33
2018-11-05T02:43:27.059Z,21.82
2018-11-05T02:45:56.020Z,21.48
2018-11-05T02:48:24.955Z,23.70
2018-11-05T02:50:53.906Z,22.10
2018-11-05T02:53:22.978Z,20.97
2018-11-05T02:55:51.845Z,23.18
2018-11-05T02:58:20.801Z,16.33
2018-11-05T03:00:49.701Z,15.85
2018-11-05T03:03:18.673Z,13.22
2018-11-05T03:05:47.528Z,19.42
2018-11-05T03:08:16.472Z,16.77
2018-11-05T03:10:45.372Z,16.37
2018-11-05T03:13:14.363Z,16.37
2018-11-05T03:15:43.303Z,12.70
2018-11-05T03:18:12.167Z,15.53
2018-11-05T03:20:41.108Z,21.40
2018-11-05T03:23:10.048Z,20.95
2018-11-05T03:25:38.957Z,19.03
2018-11-05T03:28:07.882Z,22.82
2018-11-05T03:30:36.849Z,20.60
2018-11-05T03:33:06.361Z,23.13
2018-11-05T03:35:35.314Z,21.37
2018-11-05T03:38:04.292Z,19.85
2018-11-05T03:40:33.199Z,21.70
2018-11-05T03:43:02.125Z,19.65
2018-11-05T03:45:30.941Z,20.45
2018-11-05T03:47:59.776Z,23.15
2018-11-05T03:50:28.698Z,20.12
2018-11-05T03:52:57.724Z,25.57
2018-11-05T03:55:26.672Z,22.80
2018-11-05T03:57:55.594Z,24.57
2018-11-05T04:00:24.637Z,24.63
2018-11-05T04:02:53.528Z,26.12
2018-11-05T04:05:22.444Z,27.02
2018-11-05T04:07:51.462Z,45.35
2018-11-05T04:10:20.341Z,61.92
2018-11-05T04:12:49.206Z,25.85
2018-11-05T04:15:18.182Z,22.48
2018-11-05T04:17:47.132Z,28.63
2018-11-05T04:20:16.038Z,31.07
2018-11-05T04:22:45.503Z,27.98
2018-11-05T04:25:14.456Z,22.93
2018-11-05T04:27:43.536Z,21.73
2018-11-05T04:30:14.986Z,27.22
2018-11-05T04:32:44.187Z,26.60
2018-11-05T04:35:13.557Z,27.73
2018-11-05T04:37:42.432Z,26.10
2018-11-05T04:40:12.041Z,34.23
2018-11-05T04:42:41.090Z,29.82
2018-11-05T04:45:11.684Z,28.65
2018-11-05T04:47:40.948Z,36.50
2018-11-05T04:50:11.117Z,31.45
2018-11-05T04:52:40.888Z,37.93
2018-11-05T04:55:09.787Z,36.80
2018-11-05T04:57:38.791Z,36.23
2018-11-05T05:00:10.185Z,32.98
2018-11-05T05:02:40.324Z,36.55
2018-11-05T05:05:09.912Z,28.07
2018-11-05T05:07:40.191Z,37.80
2018-11-05T05:10:09.939Z,34.70
2018-11-05T05:12:40.138Z,29.87
2018-11-05T05:15:09.606Z,33.40
2018-11-05T05:17:38.958Z,36.28
2018-11-05T05:20:10.253Z,45.03
2018-11-05T05:22:39.453Z,32.50
2018-11-05T05:25:08.161Z,39.15
2018-11-05T05:27:37.055Z,31.30
2018-11-05T05:30:11.895Z,30.70
2018-11-05T05:32:40.801Z,38.02
2018-11-05T05:35:09.962Z,31.12
2018-11-05T05:37:39.000Z,39.35
2018-11-05T05:40:08.312Z,36.77
2018-11-05T05:42:37.531Z,32.80
2018-11-05T05:45:07.593Z,33.18
2018-11-05T05:47:36.556Z,39.27
2018-11-05T05:50:07.792Z,35.38
2018-11-05T05:52:36.648Z,40.30
2018-11-05T05:55:06.657Z,47.43
2018-11-05T05:57:35.550Z,42.48
2018-11-05T06:00:05.119Z,50.08
2018-11-05T06:02:34.046Z,40.60
2018-11-05T06:05:02.915Z,30.88
2018-11-05T06:07:31.827Z,39.53
2018-11-05T06:10:00.756Z,32.85
2018-11-05T06:12:29.782Z,43.28
2018-11-05T06:14:58.829Z,47.60
2018-11-05T06:17:27.696Z,43.60
2018-11-05T06:19:56.706Z,41.35
2018-11-05T06:22:25.638Z,33.55
2018-11-05T06:24:54.602Z,35.80
2018-11-05T06:27:23.682Z,38.30
2018-11-05T06:29:52.595Z,36.45
2018-11-05T06:32:21.525Z,40.85
2018-11-05T06:34:50.370Z,39.48
2018-11-05T06:37:19.414Z,36.25
2018-11-05T06:39:48.340Z,33.18
2018-11-05T06:42:17.357Z,33.58
2018-11-05T06:44:46.303Z,39.53
2018-11-05T06:47:15.134Z,34.90
2018-11-05T06:49:43.983Z,37.95
2018-11-05T06:52:12.854Z,34.93
2018-11-05T06:54:41.853Z,27.02
2018-11-05T06:57:10.841Z,38.07
2018-11-05T06:59:39.830Z,33.17
2018-11-05T07:02:08.876Z,33.87
2018-11-05T07:04:37.928Z,35.37
2018-11-05T07:07:07.241Z,30.33
2018-11-05T07:09:36.485Z,29.33
2018-11-05T07:12:05.573Z,39.50
2018-11-05T07:14:34.613Z,32.10
2018-11-05T07:17:03.849Z,37.67
2018-11-05T07:19:32.959Z,35.40
2018-11-05T07:22:01.877Z,31.23
2018-11-05T07:24:30.890Z,31.87
2018-11-05T07:26:59.794Z,33.23
2018-11-05T07:29:28.761Z,30.10
2018-11-05T07:31:57.709Z,28.30
2018-11-05T07:34:33.215Z,28.10
2018-11-05T07:37:02.009Z,35.63
2018-11-05T07:39:31.132Z,32.43
2018-11-05T07:42:00.031Z,31.87
2018-11-05T07:44:28.932Z,33.83
2018-11-05T07:46:57.910Z,37.47
2018-11-05T07:49:26.897Z,35.07
2018-11-05T07:51:55.786Z,36.53
2018-11-05T07:54:24.744Z,33.67
2018-11-05T07:56:53.731Z,36.33
2018-11-05T07:59:22.532Z,40.10
2018-11-05T08:01:51.406Z,36.37
2018-11-05T08:04:20.540Z,40.70
2018-11-05T08:06:49.483Z,35.27
2018-11-05T08:09:18.395Z,37.53
2018-11-05T08:11:47.377Z,34.97
2018-11-05T08:14:16.685Z,36.90
2018-11-05T08:16:45.627Z,38.17
2018-11-05T08:19:14.859Z,35.57
2018-11-05T08:21:43.713Z,35.23
2018-11-05T08:24:12.629Z,40.07
2018-11-05T08:26:41.491Z,30.33
2018-11-05T08:29:10.538Z,30.90
2018-11-05T08:31:39.678Z,27.53
2018-11-05T08:34:08.602Z,33.93
2018-11-05T08:36:37.410Z,27.73
2018-11-05T08:39:10.391Z,26.63
2018-11-05T08:41:39.278Z,31.47
2018-11-05T08:44:09.341Z,26.53
2018-11-05T08:46:38.467Z,23.77
2018-11-05T08:49:07.543Z,23.40
2018-11-05T08:51:36.711Z,22.40
2018-11-05T08:54:05.513Z,19.23
2018-11-05T08:56:34.421Z,20.50
2018-11-05T08:59:03.287Z,21.43
2018-11-05T09:01:34.153Z,27.67
2018-11-05T09:04:03.390Z,18.73
2018-11-05T09:06:32.430Z,19.27
2018-11-05T09:09:01.317Z,18.57
2018-11-05T09:11:30.328Z,28.43
2018-11-05T09:13:59.114Z,27.70
2018-11-05T09:16:28.952Z,20.73
2018-11-05T09:18:58.081Z,23.30
2018-11-05T09:21:26.966Z,20.87
2018-11-05T09:23:55.965Z,19.90
2018-11-05T09:26:25.111Z,21.70
2018-11-05T09:28:54.030Z,21.00
2018-11-05T09:31:23.012Z,23.60
2018-11-05T09:33:52.000Z,24.83
2018-11-05T09:36:20.946Z,21.60
2018-11-05T09:38:50.003Z,20.20
2018-11-05T09:41:19.162Z,20.80
2018-11-05T09:43:48.036Z,24.83
2018-11-05T09:46:17.070Z,17.60
2018-11-05T09:48:45.953Z,22.83
2018-11-05T09:51:14.839Z,22.60
2018-11-05T09:53:43.722Z,20.73
2018-11-05T09:56:12.712Z,20.23
2018-11-05T09:58:41.739Z,21.80
2018-11-05T10:01:10.664Z,19.73
2018-11-05T10:03:44.804Z,22.83
2018-11-05T10:06:13.618Z,22.03
2018-11-05T10:08:42.742Z,18.23
2018-11-05T10:11:11.642Z,18.50
2018-11-05T10:13:40.750Z,22.03
2018-11-05T10:16:09.791Z,21.33
2018-11-05T10:18:38.662Z,19.83
2018-11-05T10:21:07.654Z,20.80
2018-11-05T10:23:36.689Z,18.63
2018-11-05T10:26:05.907Z,19.23
2018-11-05T10:28:34.829Z,22.23
2018-11-05T10:31:03.701Z,15.03
2018-11-05T10:33:32.637Z,21.97
2018-11-05T10:36:01.588Z,20.50
2018-11-05T10:38:30.534Z,20.43
2018-11-05T10:40:59.475Z,17.83
2018-11-05T10:43:28.411Z,19.40
2018-11-05T10:45:57.327Z,19.10
2018-11-05T10:48:26.302Z,19.73
2018-11-05T10:50:55.211Z,18.77
2018-11-05T10:53:24.127Z,19.97
2018-11-05T10:55:53.098Z,18.00
2018-11-05T10:58:22.151Z,18.93
2018-11-05T11:00:56.180Z,23.23
2018-11-05T11:03:29.121Z,19.60
2018-11-05T11:05:58.094Z,20.37
2018-11-05T11:08:27.082Z,21.00
2018-11-05T11:10:56.100Z,19.87
2018-11-05T11:13:24.970Z,22.10
2018-11-05T11:15:53.900Z,17.30
2018-11-05T11:18:22.859Z,20.60
2018-11-05T11:20:51.848Z,20.47
2018-11-05T11:23:20.757Z,19.83
2018-11-05T11:25:49.697Z,17.00
2018-11-05T11:28:18.603Z,15.37
2018-11-05T11:30:47.516Z,18.00
2018-11-05T11:33:16.579Z,17.27
2018-11-05T11:35:45.507Z,16.40
2018-11-05T11:38:14.465Z,17.23
2018-11-05T11:40:43.631Z,18.00
2018-11-05T11:43:12.665Z,17.57
2018-11-05T11:45:41.624Z,16.83
2018-11-05T11:48:10.605Z,17.30
2018-11-05T11:50:39.693Z,16.00
2018-11-05T11:53:08.681Z,15.47
2018-11-05T11:55:37.538Z,14.97
2018-11-05T11:58:06.607Z,16.23
2018-11-05T12:00:35.644Z,15.00
2018-11-05T12:03:04.800Z,17.23
2018-11-05T12:05:33.635Z,14.37
2018-11-05T12:08:02.499Z,13.87
2018-11-05T12:10:31.524Z,16.03
2018-11-05T12:13:00.641Z,15.83
2018-11-05T12:15:29.609Z,14.83
2018-11-05T12:17:58.469Z,15.93
2018-11-05T12:20:27.476Z,13.33
2018-11-05T12:22:56.292Z,14.67
2018-11-05T12:25:25.182Z,13.10
2018-11-05T12:27:54.083Z,12.23
2018-11-05T12:30:24.077Z,12.43
2018-11-05T12:32:54.224Z,14.70
2018-11-05T12:35:23.171Z,12.83
2018-11-05T12:37:53.054Z,11.77
2018-11-05T12:40:22.803Z,14.07
2018-11-05T12:42:52.176Z,12.07
2018-11-05T12:45:21.077Z,9.67
2018-11-05T12:47:49.972Z,13.37
2018-11-05T12:50:20.722Z,11.53
2018-11-05T12:52:50.498Z,15.10
2018-11-05T12:55:19.488Z,12.47
2018-11-05T12:57:48.806Z,10.80
2018-11-05T13:00:23.567Z,14.13
2018-11-05T13:03:00.580Z,12.13
2018-11-05T13:05:30.720Z,8.83
2018-11-05T13:07:59.574Z,10.00
2018-11-05T13:10:28.552Z,11.30
2018-11-05T13:12:57.446Z,8.27
2018-11-05T13:15:26.573Z,10.83
2018-11-05T13:18:01.478Z,8.83
2018-11-05T13:20:30.347Z,11.67
2018-11-05T13:22:59.262Z,13.20
2018-11-05T13:25:28.303Z,9.70
2018-11-05T13:27:57.356Z,10.40
2018-11-05T13:30:26.427Z,8.23
2018-11-05T13:32:55.413Z,7.23
2018-11-05T13:35:24.272Z,7.73
2018-11-05T13:37:53.560Z,9.20
2018-11-05T13:40:23.292Z,7.73
2018-11-05T13:42:52.719Z,9.33
2018-11-05T13:45:22.499Z,10.23
2018-11-05T13:47:51.544Z,7.00
2018-11-05T13:50:19.975Z,10.00
2018-11-05T13:52:48.743Z,8.97
2018-11-05T13:55:18.037Z,7.57
2018-11-05T13:57:48.307Z,7.73
2018-11-05T14:00:18.486Z,8.03
2018-11-05T14:02:47.421Z,9.07
2018-11-05T14:05:16.472Z,10.47
2018-11-05T14:07:45.548Z,11.80
2018-11-05T14:10:16.792Z,9.43
2018-11-05T14:12:46.332Z,8.63
2018-11-05T14:15:15.245Z,8.30
2018-11-05T14:17:44.733Z,9.67
2018-11-05T14:20:14.625Z,6.60
2018-11-05T14:22:43.803Z,8.40
2018-11-05T14:25:14.117Z,8.90
2018-11-05T14:27:44.161Z,10.73
2018-11-05T14:30:13.733Z,8.50
2018-11-05T14:32:43.967Z,10.07
2018-11-05T14:35:12.905Z,7.93
2018-11-05T14:37:41.763Z,8.47
2018-11-05T14:40:12.509Z,8.63
2018-11-05T14:42:41.567Z,8.87
2018-11-05T14:45:12.482Z,11.30
2018-11-05T14:47:42.614Z,10.67
2018-11-05T14:50:13.473Z,9.03
2018-11-05T14:52:42.388Z,8.17
2018-11-05T14:55:13.800Z,10.83
2018-11-05T14:57:43.294Z,8.47
2018-11-05T15:00:14.469Z,8.27
2018-11-05T15:02:44.074Z,8.43
2018-11-05T15:05:13.851Z,10.17
2018-11-05T15:07:43.808Z,10.67
2018-11-05T15:10:14.897Z,11.40
2018-11-05T15:12:44.198Z,8.10
2018-11-05T15:15:13.903Z,11.00
2018-11-05T15:17:43.425Z,14.93
2018-11-05T15:20:15.857Z,10.63
2018-11-05T15:22:44.637Z,15.27
2018-11-05T15:25:14.116Z,12.80
2018-11-05T15:27:43.140Z,10.70
2018-11-05T15:30:15.376Z,9.67
2018-11-05T15:32:44.517Z,10.73
2018-11-05T15:35:13.364Z,12.63
2018-11-05T15:37:42.849Z,10.67
2018-11-05T15:40:13.822Z,10.70
2018-11-05T15:42:42.711Z,15.47
2018-11-05T15:45:13.763Z,16.10
2018-11-05T15:47:43.118Z,14.50
2018-11-05T15:50:15.686Z,13.73
2018-11-05T15:52:44.877Z,13.20
2018-11-05T15:55:13.651Z,11.00
2018-11-05T15:57:42.544Z,13.13
2018-11-05T16:00:18.319Z,11.60
2018-11-05T16:02:49.349Z,13.43
2018-11-05T16:05:18.542Z,12.77
2018-11-05T16:07:47.508Z,19.07
2018-11-05T16:10:16.665Z,16.23
2018-11-05T16:12:45.802Z,15.23
2018-11-05T16:15:14.889Z,13.90
2018-11-05T16:17:43.849Z,12.90
2018-11-05T16:20:15.593Z,15.63
2018-11-05T16:22:45.158Z,14.23
2018-11-05T16:25:14.123Z,13.17
2018-11-05T16:27:43.641Z,21.50
2018-11-05T16:30:14.455Z,18.23
2018-11-05T16:32:43.988Z,14.63
2018-11-05T16:35:13.155Z,17.27
2018-11-05T16:37:42.162Z,16.27
2018-11-05T16:40:13.540Z,22.53
2018-11-05T16:42:43.060Z,18.87
2018-11-05T16:45:12.274Z,20.33
2018-11-05T16:47:41.799Z,19.30
2018-11-05T16:50:12.884Z,22.83
2018-11-05T16:52:42.008Z,30.07
2018-11-05T16:55:12.665Z,27.73
2018-11-05T16:57:42.120Z,31.00
2018-11-05T17:00:11.476Z,27.60
2018-11-05T17:02:40.585Z,26.37
2018-11-05T17:05:09.444Z,25.17
2018-11-05T17:07:38.623Z,24.53
2018-11-05T17:10:08.884Z,23.60
2018-11-05T17:12:37.835Z,24.47
2018-11-05T17:15:08.539Z,21.47
2018-11-05T17:17:37.742Z,23.40
2018-11-05T17:20:08.783Z,21.23
2018-11-05T17:22:37.694Z,21.83
2018-11-05T17:25:07.489Z,18.33
2018-11-05T17:27:36.543Z,20.23
2018-11-05T17:30:06.559Z,17.80
2018-11-05T17:32:35.524Z,19.00
2018-11-05T17:35:04.730Z,22.27
2018-11-05T17:37:33.644Z,16.60
2018-11-05T17:40:02.593Z,21.97
2018-11-05T17:42:32.425Z,19.07
2018-11-05T17:45:03.114Z,18.73
2018-11-05T17:47:40.227Z,19.00
2018-11-05T17:50:12.516Z,21.43
2018-11-05T17:52:41.686Z,23.43
2018-11-05T17:55:11.637Z,19.17
2018-11-05T17:57:41.265Z,22.00
2018-11-05T18:00:13.065Z,26.37
2018-11-05T18:02:41.997Z,26.00
2018-11-05T18:05:10.939Z,22.83
2018-11-05T18:07:39.840Z,21.43
2018-11-05T18:10:09.065Z,23.17
2018-11-05T18:12:37.992Z,22.47
2018-11-05T18:15:09.331Z,29.10
2018-11-05T18:17:38.942Z,20.43
2018-11-05T18:20:09.112Z,23.70
2018-11-05T18:22:38.108Z,18.77
2018-11-05T18:25:08.544Z,22.13
2018-11-05T18:27:37.500Z,24.03
2018-11-05T18:30:06.894Z,19.63
2018-11-05T18:32:35.845Z,24.43
2018-11-05T18:35:04.891Z,28.90
2018-11-05T18:37:34.910Z,21.53
2018-11-05T18:40:04.113Z,24.57
2018-11-05T18:42:33.161Z,25.67
2018-11-05T18:45:02.151Z,19.93
2018-11-05T18:47:31.118Z,21.93
2018-11-05T18:50:00.094Z,19.50
2018-11-05T18:52:29.077Z,24.73
2018-11-05T18:54:57.976Z,21.13
2018-11-05T18:57:27.061Z,21.07
2018-11-05T18:59:57.589Z,20.97
2018-11-05T19:02:31.482Z,20.07
2018-11-05T19:05:00.446Z,22.50
2018-11-05T19:07:29.522Z,21.73
2018-11-05T19:10:00.593Z,20.97
2018-11-05T19:12:29.780Z,22.00
2018-11-05T19:14:58.785Z,22.13
2018-11-05T19:17:27.708Z,22.37
2018-11-05T19:19:56.837Z,23.87
2018-11-05T19:22:25.762Z,24.03
2018-11-05T19:24:54.606Z,20.77
2018-11-05T19:27:23.504Z,22.40
2018-11-05T19:29:52.375Z,22.67
2018-11-05T19:32:21.285Z,24.37
2018-11-05T19:34:50.305Z,24.27
2018-11-05T19:37:19.235Z,23.07
2018-11-05T19:39:48.169Z,28.40
2018-11-05T19:42:17.243Z,28.13
2018-11-05T19:44:46.201Z,28.30
2018-11-05T19:47:15.169Z,26.60
2018-11-05T19:49:44.076Z,25.73
2018-11-05T19:52:13.004Z,24.87
2018-11-05T19:54:41.846Z,31.73
2018-11-05T19:57:10.873Z,25.77
2018-11-05T19:59:39.896Z,21.67
2018-11-05T20:02:09.182Z,24.37
2018-11-05T20:04:38.192Z,29.37
2018-11-05T20:07:07.108Z,26.23
2018-11-05T20:09:36.092Z,25.80
2018-11-05T20:12:05.224Z,28.90
2018-11-05T20:14:34.153Z,26.90
2018-11-05T20:17:03.187Z,31.40
2018-11-05T20:19:32.074Z,26.20
2018-11-05T20:22:01.053Z,30.70
2018-11-05T20:24:29.987Z,30.40
2018-11-05T20:26:58.933Z,27.33
2018-11-05T20:29:27.838Z,26.37
2018-11-05T20:31:57.065Z,25.93
2018-11-05T20:34:25.999Z,24.47
2018-11-05T20:36:54.894Z,25.80
2018-11-05T20:39:23.888Z,28.80
2018-11-05T20:41:52.989Z,25.17
2018-11-05T20:44:21.944Z,23.80
2018-11-05T20:46:51.270Z,24.67
2018-11-05T20:49:20.241Z,24.13
2018-11-05T20:51:49.127Z,28.20
2018-11-05T20:54:18.089Z,27.37
2018-11-05T20:56:47.350Z,26.50
2018-11-05T20:59:16.289Z,26.00
2018-11-05T21:01:45.256Z,25.97
2018-11-05T21:04:14.497Z,27.37
2018-11-05T21:06:43.886Z,28.40
2018-11-05T21:09:13.279Z,30.00
2018-11-05T21:11:42.208Z,27.70
2018-11-05T21:14:11.167Z,31.67
2018-11-05T21:16:40.303Z,29.50
2018-11-05T21:19:09.240Z,31.17
2018-11-05T21:21:39.015Z,28.80
2018-11-05T21:24:08.321Z,32.20
2018-11-05T21:26:37.377Z,29.00
2018-11-05T21:29:06.324Z,27.17
2018-11-05T21:31:35.841Z,29.70
2018-11-05T21:34:04.961Z,28.80
2018-11-05T21:36:34.015Z,30.93
2018-11-05T21:39:03.723Z,28.17
2018-11-05T21:41:32.836Z,31.43
2018-11-05T21:44:02.510Z,32.37
2018-11-05T21:46:31.578Z,34.83
2018-11-05T21:49:00.533Z,30.70
2018-11-05T21:51:30.134Z,31.47
2018-11-05T21:53:59.209Z,29.90
2018-11-05T21:56:28.152Z,37.00
2018-11-05T21:58:57.138Z,38.53
2018-11-05T22:01:27.355Z,40.20
2018-11-05T22:03:56.804Z,43.93
2018-11-05T22:06:26.185Z,36.43
2018-11-05T22:08:55.417Z,37.20
2018-11-05T22:11:24.487Z,32.77
2018-11-05T22:13:53.490Z,31.93
2018-11-05T22:16:25.474Z,31.70
2018-11-05T22:18:55.257Z,31.10
2018-11-05T22:21:24.191Z,33.93
2018-11-05T22:23:53.190Z,34.37
2018-11-05T22:26:22.147Z,30.53
2018-11-05T22:28:51.070Z,35.13
2018-11-05T22:31:20.184Z,37.50
2018-11-05T22:33:49.077Z,34.00
2018-11-05T22:36:19.466Z,34.30
2018-11-05T22:38:48.358Z,34.63
2018-11-05T22:41:17.882Z,33.40
2018-11-05T22:43:46.731Z,29.30
2018-11-05T22:46:15.929Z,30.87
2018-11-05T22:48:44.927Z,32.07
2018-11-05T22:51:14.005Z,29.90
2018-11-05T22:53:43.094Z,29.93
2018-11-05T22:56:12.046Z,33.67
2018-11-05T22:58:40.995Z,33.70
2018-11-05T23:01:14.059Z,36.95
2018-11-05T23:03:43.027Z,29.70
2018-11-05T23:06:11.880Z,26.17
2018-11-05T23:08:40.988Z,30.20
2018-11-05T23:11:10.581Z,32.53
2018-11-05T23:13:39.713Z,28.70
2018-11-05T23:16:09.071Z,31.55
2018-11-05T23:18:38.705Z,32.85
2018-11-05T23:21:07.918Z,32.25
2018-11-05T23:23:36.931Z,36.53
2018-11-05T23:26:06.266Z,33.00
2018-11-05T23:28:35.280Z,39.48
2018-11-05T23:31:04.221Z,34.18
2018-11-05T23:33:33.240Z,37.20
2018-11-05T23:36:02.565Z,34.00
2018-11-05T23:38:31.518Z,36.00
2018-11-05T23:41:00.672Z,37.93
2018-11-05T23:43:29.511Z,27.95
2018-11-05T23:45:58.401Z,33.25
2018-11-05T23:48:27.429Z,28.92
2018-11-05T23:50:56.395Z,30.32
2018-11-05T23:53:25.411Z,27.30
2018-11-05T23:55:54.318Z,33.25
2018-11-05T23:58:23.706Z,32.17
